In Rescue
 
Open Full Screen Window  High Contrast Mode
Wind Gusting 15 knots
07
May 25, 2022 8:55 PM EDT
Weather Information
Wind Direction
  120 °
Wind Speed
  07 kt (8 mph)
Wind Gust
  15 kt (17 mph)
Altimeter
29.95 in
Visibility
10 SM
Temperature
18° C
64° F
Dewpoint
15° C
59° F
Humidity
83%
Sky Condition
Clear
VFR

METAR KCFS 260055Z AUTO 12007G15KT 10SM CLR 18/15 A2995 RMK AO2 T01790153

FAA Disclaimer: The data displayed is for advisory purposes only and is not to be used for flight planning or operations.